createdAt,value
2023-04-20T00:01:55.269Z,90.40
2023-04-20T00:04:23.675Z,90.50
2023-04-20T00:06:52.112Z,90.50
2023-04-20T00:09:20.372Z,90.50
2023-04-20T00:11:48.687Z,90.50
2023-04-20T00:14:17.325Z,90.60
2023-04-20T00:16:47.129Z,90.50
2023-04-20T00:19:15.663Z,90.60
2023-04-20T00:21:44.110Z,90.60
2023-04-20T00:24:12.373Z,90.60
2023-04-20T00:26:40.713Z,90.60
2023-04-20T00:29:09.032Z,90.70
2023-04-20T00:31:37.280Z,90.70
2023-04-20T00:34:06.954Z,90.70
2023-04-20T00:36:35.141Z,90.80
2023-04-20T00:39:05.102Z,90.80
2023-04-20T00:41:33.459Z,90.80
2023-04-20T00:44:01.713Z,90.80
2023-04-20T00:46:30.021Z,90.90
2023-04-20T00:48:58.482Z,90.90
2023-04-20T00:51:30.409Z,90.90
2023-04-20T00:53:58.762Z,90.90
2023-04-20T00:56:27.111Z,91.00
2023-04-20T00:58:56.004Z,90.90
2023-04-20T01:01:24.523Z,91.00
2023-04-20T01:03:52.923Z,90.90
2023-04-20T01:06:21.352Z,90.90
2023-04-20T01:08:52.722Z,91.00
2023-04-20T01:11:21.010Z,91.10
2023-04-20T01:13:49.883Z,91.00
2023-04-20T01:16:18.434Z,91.10
2023-04-20T01:18:48.468Z,91.10
2023-04-20T01:21:18.527Z,91.10
2023-04-20T01:23:48.452Z,91.10
2023-04-20T01:26:18.423Z,91.10
2023-04-20T01:28:47.316Z,91.10
2023-04-20T01:31:15.867Z,91.10
2023-04-20T01:33:44.137Z,91.10
2023-04-20T01:36:12.773Z,91.10
2023-04-20T01:38:41.289Z,91.20
2023-04-20T01:41:11.715Z,91.20
2023-04-20T01:43:40.859Z,91.20
2023-04-20T01:46:09.470Z,91.20
2023-04-20T01:48:37.817Z,91.20
2023-04-20T01:51:06.130Z,91.30
2023-04-20T01:53:34.421Z,91.20
2023-04-20T01:56:02.693Z,91.20
2023-04-20T01:58:32.464Z,91.20
2023-04-20T02:01:02.715Z,91.10
2023-04-20T02:03:31.281Z,91.20
2023-04-20T02:05:59.796Z,91.10
2023-04-20T02:08:28.021Z,91.10
2023-04-20T02:10:56.338Z,91.00
2023-04-20T02:13:24.572Z,91.10
2023-04-20T02:15:55.657Z,91.00
2023-04-20T02:18:24.586Z,91.00
2023-04-20T02:20:53.768Z,91.00
2023-04-20T02:23:22.034Z,91.00
2023-04-20T02:25:50.302Z,91.00
2023-04-20T02:28:18.537Z,91.10
2023-04-20T02:30:46.802Z,91.10
2023-04-20T02:33:16.732Z,91.10
2023-04-20T02:35:45.263Z,91.00
2023-04-20T02:38:13.568Z,91.00
2023-04-20T02:40:41.869Z,91.00
2023-04-20T02:43:10.266Z,91.00
2023-04-20T02:45:38.699Z,91.00
2023-04-20T02:48:07.627Z,91.40
2023-04-20T02:50:38.482Z,91.00
2023-04-20T02:53:07.075Z,91.10
2023-04-20T02:55:35.301Z,91.10
2023-04-20T02:58:04.797Z,91.10
2023-04-20T03:00:33.144Z,91.20
2023-04-20T03:03:01.898Z,91.20
2023-04-20T03:05:30.175Z,91.30
2023-04-20T03:07:59.870Z,91.40
2023-04-20T03:10:28.139Z,91.40
2023-04-20T03:12:56.455Z,91.50
2023-04-20T03:15:25.185Z,91.40
2023-04-20T03:17:53.712Z,91.50
2023-04-20T03:20:22.091Z,91.60
2023-04-20T03:22:50.356Z,91.60
2023-04-20T03:25:20.425Z,91.70
2023-04-20T03:27:48.762Z,91.80
2023-04-20T03:30:17.743Z,92.20
2023-04-20T03:32:46.328Z,91.90
2023-04-20T03:35:14.939Z,91.90
2023-04-20T03:37:43.208Z,92.00
2023-04-20T03:40:12.446Z,92.10
2023-04-20T03:42:42.806Z,92.10
2023-04-20T03:45:11.921Z,92.30
2023-04-20T03:47:40.236Z,92.30
2023-04-20T03:50:09.176Z,92.50
2023-04-20T03:52:37.544Z,92.60
2023-04-20T03:55:07.080Z,92.60
2023-04-20T03:57:35.815Z,92.90
2023-04-20T04:00:06.264Z,92.70
2023-04-20T04:02:37.967Z,92.80
2023-04-20T04:05:08.134Z,93.00
2023-04-20T04:07:36.446Z,93.30
2023-04-20T04:10:06.036Z,92.90
2023-04-20T04:12:34.347Z,92.90
2023-04-20T04:15:02.790Z,92.80
2023-04-20T04:17:32.525Z,92.90
2023-04-20T04:20:00.880Z,92.90
2023-04-20T04:22:30.508Z,93.00
2023-04-20T04:24:58.952Z,93.10
2023-04-20T04:27:30.262Z,93.20
2023-04-20T04:29:58.476Z,93.10
2023-04-20T04:32:26.847Z,93.30
2023-04-20T04:34:56.680Z,93.30
2023-04-20T04:37:24.933Z,93.40
2023-04-20T04:39:53.195Z,93.40
2023-04-20T04:42:21.461Z,93.50
2023-04-20T04:44:51.786Z,93.50
2023-04-20T04:47:22.122Z,93.40
2023-04-20T04:49:50.566Z,93.40
2023-04-20T04:52:20.267Z,93.40
2023-04-20T04:54:49.462Z,93.20
2023-04-20T04:57:17.757Z,93.30
2023-04-20T04:59:46.069Z,93.20
2023-04-20T05:02:14.361Z,93.20
2023-04-20T05:04:42.878Z,93.10
2023-04-20T05:07:11.584Z,93.10
2023-04-20T05:09:41.356Z,93.10
2023-04-20T05:12:09.662Z,93.10
2023-04-20T05:14:38.010Z,93.20
2023-04-20T05:17:06.532Z,93.30
2023-04-20T05:19:35.106Z,93.30
2023-04-20T05:22:03.302Z,93.40
2023-04-20T05:24:31.554Z,93.40
2023-04-20T05:27:01.537Z,93.50
2023-04-20T05:29:29.787Z,93.60
2023-04-20T05:31:58.165Z,93.60
2023-04-20T05:34:26.804Z,93.80
2023-04-20T05:36:57.003Z,93.90
2023-04-20T05:39:25.365Z,94.00
2023-04-20T05:41:53.578Z,94.10
2023-04-20T05:44:23.294Z,94.20
2023-04-20T05:46:51.490Z,94.30
2023-04-20T05:49:19.867Z,94.30
2023-04-20T05:51:48.526Z,94.40
2023-04-20T05:54:16.909Z,94.50
2023-04-20T05:56:45.606Z,94.60
2023-04-20T05:59:14.026Z,94.70
2023-04-20T06:01:43.814Z,94.80
2023-04-20T06:04:12.600Z,94.90
2023-04-20T06:06:41.463Z,94.90
2023-04-20T06:09:10.229Z,94.90
2023-04-20T06:11:38.465Z,94.90
2023-04-20T06:14:06.760Z,95.00
2023-04-20T06:16:35.127Z,95.10
2023-04-20T06:19:04.840Z,95.30
2023-04-20T06:21:34.833Z,95.50
2023-04-20T06:24:03.159Z,95.60
2023-04-20T06:26:31.642Z,95.80
2023-04-20T06:28:59.887Z,95.90
2023-04-20T06:31:28.250Z,96.00
2023-04-20T06:33:56.537Z,96.00
2023-04-20T06:36:27.759Z,96.10
2023-04-20T06:38:56.418Z,96.10
2023-04-20T06:41:24.922Z,96.00
2023-04-20T06:43:53.177Z,96.00
2023-04-20T06:46:21.475Z,96.00
2023-04-20T06:48:49.851Z,95.90
2023-04-20T06:51:18.138Z,95.90
2023-04-20T06:53:48.058Z,95.90
2023-04-20T06:56:16.336Z,96.00
2023-04-20T06:58:44.892Z,96.00
2023-04-20T07:01:13.238Z,96.00
2023-04-20T07:03:41.760Z,96.10
2023-04-20T07:06:11.441Z,96.10
2023-04-20T07:08:41.454Z,96.20
2023-04-20T07:11:11.132Z,96.40
2023-04-20T07:13:39.432Z,96.60
2023-04-20T07:16:08.731Z,96.80
2023-04-20T07:18:37.471Z,96.90
2023-04-20T07:21:05.994Z,96.80
2023-04-20T07:23:34.290Z,96.90
2023-04-20T07:26:02.526Z,97.00
2023-04-20T07:28:32.252Z,97.00
2023-04-20T07:31:00.612Z,97.20
2023-04-20T07:33:29.946Z,97.30
2023-04-20T07:35:58.219Z,97.40
2023-04-20T07:38:26.533Z,97.30
2023-04-20T07:40:55.194Z,97.40
2023-04-20T07:43:23.613Z,97.30
2023-04-20T07:45:53.339Z,97.40
2023-04-20T07:48:21.721Z,97.40
2023-04-20T07:50:49.999Z,97.40
2023-04-20T07:53:18.247Z,97.30
2023-04-20T07:55:47.165Z,97.30
2023-04-20T07:58:17.530Z,97.40
2023-04-20T08:00:47.592Z,97.20
2023-04-20T08:03:17.422Z,97.00
2023-04-20T08:05:46.082Z,96.60
2023-04-20T08:08:14.473Z,96.20
2023-04-20T08:10:42.836Z,96.20
2023-04-20T08:13:11.061Z,96.10
2023-04-20T08:15:39.438Z,96.20
2023-04-20T08:18:07.880Z,96.00
2023-04-20T08:20:37.479Z,96.10
2023-04-20T08:23:06.024Z,96.20
2023-04-20T08:25:34.401Z,96.50
2023-04-20T08:28:02.931Z,96.50
2023-04-20T08:30:32.467Z,96.50
2023-04-20T08:33:00.941Z,96.40
2023-04-20T08:35:29.318Z,96.40
2023-04-20T08:37:59.041Z,96.60
2023-04-20T08:40:28.372Z,96.60
2023-04-20T08:42:57.548Z,96.40
2023-04-20T08:45:25.907Z,96.50
2023-04-20T08:47:54.407Z,96.60
2023-04-20T08:50:22.942Z,96.70
2023-04-20T08:52:51.464Z,96.60
2023-04-20T08:55:21.632Z,96.60
2023-04-20T08:57:50.621Z,96.90
2023-04-20T09:00:19.853Z,96.90
2023-04-20T09:02:52.447Z,97.10
2023-04-20T09:05:28.511Z,96.80
2023-04-20T09:07:59.028Z,96.90
2023-04-20T09:10:41.268Z,96.80
2023-04-20T09:13:09.654Z,96.80
2023-04-20T09:15:38.064Z,96.80
2023-04-20T09:18:16.397Z,96.90
2023-04-20T09:20:45.007Z,96.70
2023-04-20T09:23:14.142Z,96.50
2023-04-20T09:25:46.440Z,96.50
2023-04-20T09:28:15.403Z,96.20
2023-04-20T09:30:45.371Z,96.10
2023-04-20T09:33:14.441Z,96.20
2023-04-20T09:35:43.990Z,95.80
2023-04-20T09:38:16.463Z,95.70
2023-04-20T09:40:46.248Z,95.40
2023-04-20T09:43:20.136Z,95.10
2023-04-20T09:45:49.375Z,95.30
2023-04-20T09:48:19.725Z,95.10
2023-04-20T09:50:50.598Z,94.80
2023-04-20T09:53:20.141Z,94.20
2023-04-20T09:55:51.394Z,93.80
2023-04-20T09:58:20.961Z,93.30
2023-04-20T10:00:50.049Z,93.40
2023-04-20T10:03:19.247Z,93.40
2023-04-20T10:05:47.755Z,93.10
2023-04-20T10:08:16.179Z,93.20
2023-04-20T10:10:46.178Z,93.20
2023-04-20T10:13:16.974Z,93.40
2023-04-20T10:15:45.328Z,93.40
2023-04-20T10:18:18.843Z,92.30
2023-04-20T10:20:47.673Z,92.40
2023-04-20T10:23:16.495Z,92.80
2023-04-20T10:25:47.536Z,92.90
2023-04-20T10:28:17.772Z,93.10
2023-04-20T10:30:52.689Z,93.00
2023-04-20T10:33:22.829Z,93.30
2023-04-20T10:35:54.950Z,93.80
2023-04-20T10:38:31.768Z,93.90
2023-04-20T10:41:08.273Z,93.50
2023-04-20T10:43:39.285Z,93.60
2023-04-20T10:46:16.088Z,93.80
2023-04-20T10:48:57.716Z,93.70
2023-04-20T10:51:26.353Z,93.40
2023-04-20T10:54:02.384Z,93.40
2023-04-20T10:56:38.470Z,93.30
2023-04-20T10:59:13.385Z,93.20
2023-04-20T11:01:42.710Z,93.20
2023-04-20T11:04:12.215Z,93.40
2023-04-20T11:06:41.249Z,93.50
2023-04-20T11:09:20.779Z,93.00
2023-04-20T11:12:00.452Z,92.70
2023-04-20T11:14:30.885Z,92.40
2023-04-20T11:16:59.510Z,92.20
2023-04-20T11:19:29.514Z,92.10
2023-04-20T11:21:58.117Z,92.20
2023-04-20T11:24:27.704Z,92.40
2023-04-20T11:26:56.847Z,92.50
2023-04-20T11:29:34.373Z,92.40
2023-04-20T11:32:05.637Z,92.40
2023-04-20T11:34:34.967Z,92.60
2023-04-20T11:37:06.667Z,92.50
2023-04-20T11:39:35.435Z,92.60
2023-04-20T11:42:03.768Z,92.90
2023-04-20T11:44:34.485Z,92.90
2023-04-20T11:47:02.760Z,92.90
2023-04-20T11:49:31.060Z,92.50
2023-04-20T11:51:59.842Z,92.40
2023-04-20T11:54:29.964Z,92.00
2023-04-20T11:56:59.112Z,91.50
2023-04-20T11:59:27.455Z,91.00
2023-04-20T12:01:57.659Z,90.70
2023-04-20T12:04:26.274Z,89.80
2023-04-20T12:06:55.226Z,89.00
2023-04-20T12:09:23.496Z,89.80
2023-04-20T12:11:51.780Z,89.50
2023-04-20T12:14:20.152Z,89.80
2023-04-20T12:16:48.471Z,90.10
2023-04-20T12:19:18.491Z,90.10
2023-04-20T12:21:48.064Z,88.40
2023-04-20T12:24:16.340Z,87.60
2023-04-20T12:26:44.609Z,87.40
2023-04-20T12:29:12.849Z,85.90
2023-04-20T12:31:41.223Z,85.50
2023-04-20T12:34:09.510Z,84.80
2023-04-20T12:36:39.268Z,84.90
2023-04-20T12:39:07.659Z,85.10
2023-04-20T12:41:36.281Z,83.80
2023-04-20T12:44:15.816Z,83.20
2023-04-20T12:46:44.220Z,83.20
2023-04-20T12:49:12.517Z,84.50
2023-04-20T12:51:42.180Z,83.90
2023-04-20T12:54:10.547Z,84.00
2023-04-20T12:56:38.786Z,83.60
2023-04-20T12:59:07.056Z,83.00
2023-04-20T13:01:35.711Z,82.80
2023-04-20T13:04:04.163Z,81.60
2023-04-20T13:06:32.829Z,81.20
2023-04-20T13:09:04.044Z,80.80
2023-04-20T13:11:32.502Z,81.50
2023-04-20T13:14:00.906Z,81.90
2023-04-20T13:16:29.451Z,83.20
2023-04-20T13:18:58.089Z,83.70
2023-04-20T13:21:26.443Z,83.40
2023-04-20T13:23:55.540Z,82.40
2023-04-20T13:26:26.783Z,83.00
2023-04-20T13:28:57.589Z,83.20
2023-04-20T13:31:26.058Z,83.80
2023-04-20T13:33:54.839Z,83.50
2023-04-20T13:36:23.890Z,82.50
2023-04-20T13:38:53.595Z,83.00
2023-04-20T13:41:21.962Z,81.40
2023-04-20T13:43:51.668Z,80.70
2023-04-20T13:46:20.945Z,80.60
2023-04-20T13:48:49.366Z,80.40
2023-04-20T13:51:17.803Z,81.00
2023-04-20T13:53:48.055Z,80.60
2023-04-20T13:56:17.463Z,80.40
2023-04-20T13:58:45.838Z,81.80
2023-04-20T14:01:16.742Z,83.90
2023-04-20T14:03:47.353Z,84.20
2023-04-20T14:06:15.954Z,83.30
2023-04-20T14:08:44.378Z,81.90
2023-04-20T14:11:12.655Z,81.10
2023-04-20T14:13:41.336Z,80.70
2023-04-20T14:16:11.081Z,80.40
2023-04-20T14:18:41.229Z,81.00
2023-04-20T14:21:10.085Z,81.10
2023-04-20T14:23:38.386Z,81.40
2023-04-20T14:26:07.458Z,81.30
2023-04-20T14:28:35.946Z,80.80
2023-04-20T14:31:04.773Z,80.70
2023-04-20T14:33:33.028Z,81.10
2023-04-20T14:36:02.663Z,81.40
2023-04-20T14:38:31.160Z,81.50
2023-04-20T14:41:00.054Z,81.70
2023-04-20T14:43:28.370Z,82.50
2023-04-20T14:45:58.822Z,82.30
2023-04-20T14:48:27.256Z,81.60
2023-04-20T14:50:55.703Z,80.30
2023-04-20T14:53:25.358Z,79.00
2023-04-20T14:55:53.714Z,78.90
2023-04-20T14:58:22.037Z,78.80
2023-04-20T15:00:50.645Z,78.80
2023-04-20T15:03:19.954Z,79.40
2023-04-20T15:05:48.374Z,79.40
2023-04-20T15:08:16.873Z,80.00
2023-04-20T15:10:46.633Z,80.00
2023-04-20T15:13:15.111Z,80.70
2023-04-20T15:15:48.726Z,81.20
2023-04-20T15:18:17.463Z,81.30
2023-04-20T15:20:45.796Z,81.00
2023-04-20T15:23:14.083Z,81.10
2023-04-20T15:25:42.366Z,81.50
2023-04-20T15:28:12.307Z,81.40
2023-04-20T15:30:41.039Z,81.60
2023-04-20T15:33:09.442Z,80.40
2023-04-20T15:35:37.835Z,80.00
2023-04-20T15:38:06.282Z,78.90
2023-04-20T15:40:34.594Z,78.90
2023-04-20T15:43:03.640Z,78.40
2023-04-20T15:45:33.312Z,78.60
2023-04-20T15:48:02.072Z,78.10
2023-04-20T15:50:30.449Z,78.00
2023-04-20T15:52:58.670Z,78.20
2023-04-20T15:55:27.376Z,78.60
2023-04-20T15:57:58.189Z,78.60
2023-04-20T16:00:26.964Z,78.90
2023-04-20T16:02:56.904Z,78.80
2023-04-20T16:05:27.044Z,79.20
2023-04-20T16:07:55.761Z,79.30
2023-04-20T16:10:24.231Z,79.10
2023-04-20T16:12:52.521Z,78.40
2023-04-20T16:15:21.708Z,78.40
2023-04-20T16:17:50.982Z,79.50
2023-04-20T16:20:21.498Z,80.30
2023-04-20T16:22:49.815Z,81.00
2023-04-20T16:25:23.215Z,82.10
2023-04-20T16:27:52.112Z,83.60
2023-04-20T16:30:21.211Z,83.90
2023-04-20T16:32:49.827Z,83.90
2023-04-20T16:35:18.368Z,84.60
2023-04-20T16:37:48.307Z,85.50
2023-04-20T16:40:16.714Z,86.00
2023-04-20T16:42:45.010Z,86.90
2023-04-20T16:45:13.518Z,88.00
2023-04-20T16:47:41.871Z,89.30
2023-04-20T16:50:12.511Z,90.10
2023-04-20T16:52:41.136Z,90.70
2023-04-20T16:55:11.569Z,91.10
2023-04-20T16:57:40.043Z,91.80
2023-04-20T17:00:10.802Z,92.20
2023-04-20T17:02:39.409Z,92.30
2023-04-20T17:05:08.753Z,92.20
2023-04-20T17:07:37.515Z,91.90
2023-04-20T17:10:06.481Z,91.70
2023-04-20T17:12:36.289Z,92.00
2023-04-20T17:15:04.898Z,92.50
2023-04-20T17:17:34.179Z,92.80
2023-04-20T17:20:05.293Z,93.10
2023-04-20T17:22:33.516Z,93.10
2023-04-20T17:25:02.286Z,93.00
2023-04-20T17:27:30.644Z,92.90
2023-04-20T17:30:02.071Z,93.20
2023-04-20T17:32:30.931Z,92.70
2023-04-20T17:34:59.358Z,92.90
2023-04-20T17:37:28.442Z,93.00
2023-04-20T17:39:56.814Z,93.10
2023-04-20T17:42:25.172Z,93.30
2023-04-20T17:44:53.490Z,93.60
2023-04-20T17:47:23.318Z,93.90
2023-04-20T17:49:52.091Z,93.90
2023-04-20T17:52:22.256Z,94.10
2023-04-20T17:54:50.643Z,94.20
2023-04-20T17:57:18.968Z,94.30
2023-04-20T17:59:47.150Z,94.30
2023-04-20T18:02:17.101Z,94.30
2023-04-20T18:04:47.240Z,94.20
2023-04-20T18:07:17.973Z,94.10
2023-04-20T18:09:46.676Z,93.90
2023-04-20T18:12:15.043Z,93.90
2023-04-20T18:14:44.225Z,93.90
2023-04-20T18:17:12.732Z,94.00
2023-04-20T18:19:41.347Z,94.00
2023-04-20T18:22:11.042Z,93.80
2023-04-20T18:24:39.395Z,93.70
2023-04-20T18:27:07.631Z,93.60
2023-04-20T18:29:36.092Z,93.40
2023-04-20T18:32:04.630Z,93.20
2023-04-20T18:34:33.216Z,93.10
2023-04-20T18:37:01.539Z,93.10
2023-04-20T18:39:31.154Z,93.10
2023-04-20T18:41:59.516Z,93.20
2023-04-20T18:44:29.268Z,93.20
2023-04-20T18:46:57.661Z,93.00
2023-04-20T18:49:26.147Z,93.00
2023-04-20T18:51:54.640Z,92.90
2023-04-20T18:54:22.981Z,92.90
2023-04-20T18:56:54.768Z,92.90
2023-04-20T18:59:24.772Z,92.90
2023-04-20T19:01:53.168Z,92.80
2023-04-20T19:04:21.875Z,92.70
2023-04-20T19:06:50.457Z,92.50
2023-04-20T19:09:18.754Z,92.50
2023-04-20T19:11:47.160Z,92.50
2023-04-20T19:14:17.685Z,92.40
2023-04-20T19:16:46.229Z,92.30
2023-04-20T19:19:15.164Z,92.40
2023-04-20T19:21:43.657Z,92.50
2023-04-20T19:24:12.033Z,92.60
2023-04-20T19:26:40.498Z,92.60
2023-04-20T19:29:08.786Z,92.70
2023-04-20T19:31:40.270Z,92.70
2023-04-20T19:34:09.380Z,92.70
2023-04-20T19:36:37.750Z,92.80
2023-04-20T19:39:07.228Z,92.70
2023-04-20T19:41:36.344Z,92.80
2023-04-20T19:44:06.542Z,92.90
2023-04-20T19:46:35.388Z,92.80
2023-04-20T19:49:05.264Z,92.80
2023-04-20T19:51:34.151Z,92.80
2023-04-20T19:54:04.868Z,92.80
2023-04-20T19:56:33.745Z,92.80
2023-04-20T19:59:02.198Z,92.80
2023-04-20T20:01:30.840Z,92.80
2023-04-20T20:03:59.614Z,92.90
2023-04-20T20:06:29.852Z,93.00
2023-04-20T20:08:59.023Z,93.10
2023-04-20T20:11:27.944Z,93.10
2023-04-20T20:13:56.493Z,93.10
2023-04-20T20:16:25.053Z,93.10
2023-04-20T20:18:53.587Z,93.10
2023-04-20T20:21:22.584Z,93.20
2023-04-20T20:23:52.612Z,93.20
2023-04-20T20:26:21.230Z,93.30
2023-04-20T20:28:49.768Z,93.30
2023-04-20T20:31:18.149Z,93.40
2023-04-20T20:33:46.653Z,93.30
2023-04-20T20:36:17.720Z,93.40
2023-04-20T20:38:47.434Z,93.40
2023-04-20T20:41:18.489Z,93.40
2023-04-20T20:43:47.345Z,93.40
2023-04-20T20:46:15.982Z,93.30
2023-04-20T20:48:44.289Z,93.30
2023-04-20T20:51:12.895Z,93.20
2023-04-20T20:53:41.280Z,93.20
2023-04-20T20:56:09.594Z,93.20
2023-04-20T20:58:39.303Z,93.20
2023-04-20T21:01:07.787Z,93.30
2023-04-20T21:03:36.940Z,93.40
2023-04-20T21:06:05.930Z,93.30
2023-04-20T21:08:34.248Z,93.30
2023-04-20T21:11:02.468Z,93.60
2023-04-20T21:13:30.705Z,93.30
2023-04-20T21:16:00.371Z,93.30
2023-04-20T21:18:28.936Z,93.50
2023-04-20T21:20:57.242Z,93.50
2023-04-20T21:23:25.511Z,93.50
2023-04-20T21:25:53.827Z,93.50
2023-04-20T21:28:22.094Z,93.50
2023-04-20T21:30:50.500Z,93.70
2023-04-20T21:33:20.169Z,93.70
2023-04-20T21:35:48.458Z,94.10
2023-04-20T21:38:16.784Z,93.70
2023-04-20T21:40:45.355Z,93.80
2023-04-20T21:43:13.948Z,93.80
2023-04-20T21:45:42.469Z,93.90
2023-04-20T21:48:10.821Z,93.90
2023-04-20T21:50:40.534Z,93.90
2023-04-20T21:53:08.791Z,94.00
2023-04-20T21:55:37.050Z,94.00
2023-04-20T21:58:05.311Z,94.20
2023-04-20T22:00:33.594Z,94.10
2023-04-20T22:03:01.909Z,94.10
2023-04-20T22:05:30.473Z,94.10
2023-04-20T22:08:00.277Z,94.10
2023-04-20T22:10:28.749Z,94.20
2023-04-20T22:12:57.067Z,94.10
2023-04-20T22:15:26.396Z,94.20
2023-04-20T22:17:54.837Z,94.20
2023-04-20T22:20:23.262Z,94.20
2023-04-20T22:22:51.638Z,94.30
2023-04-20T22:25:21.375Z,94.30
2023-04-20T22:27:49.788Z,94.30
2023-04-20T22:30:18.462Z,94.40
2023-04-20T22:32:46.865Z,94.30
2023-04-20T22:35:15.401Z,94.40
2023-04-20T22:37:43.781Z,94.40
2023-04-20T22:40:12.580Z,94.40
2023-04-20T22:42:42.346Z,94.50
2023-04-20T22:45:11.995Z,94.50
2023-04-20T22:47:40.680Z,94.50
2023-04-20T22:50:12.376Z,94.50
2023-04-20T22:52:40.784Z,94.50
2023-04-20T22:55:11.288Z,94.50
2023-04-20T22:57:39.818Z,94.50
2023-04-20T23:00:13.901Z,94.50
2023-04-20T23:02:42.845Z,94.50
2023-04-20T23:05:11.846Z,94.50
2023-04-20T23:07:40.489Z,94.50
2023-04-20T23:10:11.385Z,94.60
2023-04-20T23:12:39.723Z,94.60
2023-04-20T23:15:10.977Z,94.60
2023-04-20T23:17:39.483Z,94.70
2023-04-20T23:20:11.010Z,94.70
2023-04-20T23:22:39.355Z,95.00
2023-04-20T23:25:09.905Z,94.60
2023-04-20T23:27:38.334Z,94.60
2023-04-20T23:30:10.203Z,94.60
2023-04-20T23:32:38.616Z,94.70
2023-04-20T23:35:07.679Z,94.80
2023-04-20T23:37:36.068Z,94.70
2023-04-20T23:40:07.418Z,94.70
2023-04-20T23:42:37.606Z,94.80
2023-04-20T23:45:07.313Z,94.80
2023-04-20T23:47:37.471Z,94.70
2023-04-20T23:50:07.147Z,94.70
2023-04-20T23:52:36.083Z,94.70
2023-04-20T23:55:04.952Z,94.70
2023-04-20T23:57:33.284Z,94.70
